createdAt,value
2018-07-04T00:00:44.959Z,23.70
2018-07-04T00:03:25.402Z,23.80
2018-07-04T00:06:05.917Z,23.80
2018-07-04T00:08:46.339Z,23.70
2018-07-04T00:11:26.873Z,23.70
2018-07-04T00:14:07.069Z,23.70
2018-07-04T00:16:47.542Z,23.70
2018-07-04T00:19:27.921Z,23.70
2018-07-04T00:22:08.380Z,23.60
2018-07-04T00:24:48.874Z,23.50
2018-07-04T00:27:29.153Z,23.50
2018-07-04T00:30:09.448Z,23.60
2018-07-04T00:32:49.746Z,23.70
2018-07-04T00:35:30.098Z,23.60
2018-07-04T00:38:10.412Z,23.70
2018-07-04T00:40:50.825Z,23.60
2018-07-04T00:43:31.245Z,23.60
2018-07-04T00:46:11.578Z,23.50
2018-07-04T00:48:51.905Z,23.40
2018-07-04T00:51:32.086Z,23.30
2018-07-04T00:54:12.583Z,23.30
2018-07-04T00:56:52.977Z,23.30
2018-07-04T00:59:33.403Z,23.40
2018-07-04T01:02:13.760Z,23.50
2018-07-04T01:04:54.111Z,23.30
2018-07-04T01:07:34.553Z,23.40
2018-07-04T01:10:14.894Z,23.40
2018-07-04T01:12:55.707Z,23.40
2018-07-04T01:15:36.198Z,23.30
2018-07-04T01:18:16.545Z,23.30
2018-07-04T01:21:02.417Z,23.30
2018-07-04T01:23:42.722Z,23.20
2018-07-04T01:26:23.110Z,23.20
2018-07-04T01:29:03.484Z,23.20
2018-07-04T01:31:43.806Z,23.20
2018-07-04T01:34:24.073Z,23.20
2018-07-04T01:37:04.556Z,23.20
2018-07-04T01:39:45.039Z,23.20
2018-07-04T01:42:25.355Z,23.10
2018-07-04T01:45:05.722Z,23.20
2018-07-04T01:47:46.084Z,23.20
2018-07-04T01:50:26.323Z,23.20
2018-07-04T01:53:06.725Z,23.30
2018-07-04T01:55:47.024Z,23.30
2018-07-04T01:58:27.591Z,23.30
2018-07-04T02:01:07.906Z,23.20
2018-07-04T02:03:48.325Z,22.90
2018-07-04T02:06:28.704Z,23.00
2018-07-04T02:09:09.098Z,22.90
2018-07-04T02:11:49.485Z,22.90
2018-07-04T02:14:29.958Z,22.90
2018-07-04T02:17:10.341Z,22.90
2018-07-04T02:19:50.630Z,22.70
2018-07-04T02:22:30.983Z,22.70
2018-07-04T02:25:11.517Z,22.60
2018-07-04T02:27:51.967Z,22.80
2018-07-04T02:30:32.480Z,22.80
2018-07-04T02:33:12.981Z,22.80
2018-07-04T02:35:53.362Z,22.80
2018-07-04T02:38:33.693Z,22.90
2018-07-04T02:41:14.040Z,22.90
2018-07-04T02:43:54.449Z,22.80
2018-07-04T02:46:39.372Z,22.60
2018-07-04T02:49:20.954Z,22.70
2018-07-04T02:52:01.800Z,22.60
2018-07-04T02:54:42.186Z,22.40
2018-07-04T02:57:22.515Z,22.40
2018-07-04T03:00:02.840Z,22.40
2018-07-04T03:02:43.218Z,22.40
2018-07-04T03:05:23.564Z,22.30
2018-07-04T03:08:03.948Z,22.40
2018-07-04T03:10:44.341Z,22.30
2018-07-04T03:13:24.772Z,22.30
2018-07-04T03:16:05.119Z,22.30
2018-07-04T03:18:45.478Z,22.20
2018-07-04T03:21:25.863Z,22.20
2018-07-04T03:24:06.331Z,22.20
2018-07-04T03:26:46.714Z,22.20
2018-07-04T03:29:27.053Z,22.20
2018-07-04T03:32:07.632Z,22.20
2018-07-04T03:34:48.045Z,22.30
2018-07-04T03:37:28.535Z,22.30
2018-07-04T03:40:08.829Z,22.30
2018-07-04T03:42:49.313Z,22.30
2018-07-04T03:45:29.853Z,22.40
2018-07-04T03:48:10.506Z,22.20
2018-07-04T03:50:51.258Z,22.20
2018-07-04T03:53:31.961Z,22.10
2018-07-04T03:56:12.506Z,22.10
2018-07-04T03:58:53.051Z,22.20
2018-07-04T04:01:33.509Z,22.20
2018-07-04T04:04:14.055Z,22.20
2018-07-04T04:06:54.491Z,22.30
2018-07-04T04:09:35.002Z,22.30
2018-07-04T04:12:15.324Z,22.30
2018-07-04T04:14:55.805Z,22.30
2018-07-04T04:17:36.197Z,22.20
2018-07-04T04:20:16.556Z,22.20
2018-07-04T04:22:57.180Z,22.30
2018-07-04T04:25:37.577Z,22.30
2018-07-04T04:28:18.002Z,22.20
2018-07-04T04:30:58.433Z,22.20
2018-07-04T04:33:38.769Z,22.20
2018-07-04T04:36:19.379Z,22.20
2018-07-04T04:38:59.677Z,22.30
2018-07-04T04:41:40.082Z,22.20
2018-07-04T04:44:20.397Z,22.30
2018-07-04T04:47:00.742Z,22.20
2018-07-04T04:49:41.032Z,22.20
2018-07-04T04:52:21.459Z,22.40
2018-07-04T04:55:01.742Z,22.40
2018-07-04T04:57:42.586Z,22.40
2018-07-04T05:00:22.783Z,22.20
2018-07-04T05:03:03.189Z,22.40
2018-07-04T05:05:43.680Z,22.40
2018-07-04T05:08:24.041Z,22.40
2018-07-04T05:11:04.565Z,22.50
2018-07-04T05:13:45.001Z,22.60
2018-07-04T05:16:25.622Z,22.60
2018-07-04T05:19:06.118Z,22.60
2018-07-04T05:21:46.469Z,22.70
2018-07-04T05:27:01.268Z,22.70
2018-07-04T05:29:41.709Z,22.70
2018-07-04T05:34:56.583Z,22.70
2018-07-04T05:37:37.111Z,22.80
2018-07-04T05:40:17.638Z,22.90
2018-07-04T05:42:58.200Z,23.00
2018-07-04T05:45:38.607Z,23.00
2018-07-04T05:48:19.012Z,23.00
2018-07-04T05:50:59.725Z,23.00
2018-07-04T05:53:40.121Z,23.10
2018-07-04T05:56:20.749Z,23.10
2018-07-04T05:59:00.951Z,23.20
2018-07-04T06:01:41.478Z,23.30
2018-07-04T06:04:21.769Z,23.50
2018-07-04T06:07:02.132Z,23.60
2018-07-04T06:09:42.891Z,23.80
2018-07-04T06:12:23.459Z,23.80
2018-07-04T06:15:03.996Z,23.90
2018-07-04T06:17:44.373Z,23.80
2018-07-04T06:20:24.840Z,23.90
2018-07-04T06:23:05.294Z,24.00
2018-07-04T06:25:45.805Z,23.90
2018-07-04T06:28:26.263Z,24.00
2018-07-04T06:31:06.626Z,24.10
2018-07-04T06:33:46.955Z,24.00
2018-07-04T06:36:27.300Z,24.20
2018-07-04T06:38:55.335Z,24.30
2018-07-04T06:41:23.859Z,24.50
2018-07-04T06:43:51.866Z,24.80
2018-07-04T06:46:19.893Z,25.10
2018-07-04T06:48:47.952Z,25.30
2018-07-04T06:51:15.929Z,25.60
2018-07-04T06:53:43.976Z,25.80
2018-07-04T06:56:12.968Z,25.90
2018-07-04T06:58:40.974Z,26.10
2018-07-04T07:01:09.014Z,26.60
2018-07-04T07:03:49.410Z,26.90
2018-07-04T07:06:29.982Z,27.30
2018-07-04T07:09:10.532Z,27.70
2018-07-04T07:11:50.855Z,28.00
2018-07-04T07:14:31.434Z,28.30
2018-07-04T07:19:46.218Z,29.10
2018-07-04T07:22:26.541Z,29.50
2018-07-04T07:25:07.114Z,29.90
2018-07-04T07:27:47.565Z,30.30
2018-07-04T07:30:27.957Z,30.20
2018-07-04T07:33:08.371Z,31.30
2018-07-04T07:35:48.798Z,31.70
2018-07-04T07:38:29.182Z,32.00
2018-07-04T07:41:09.602Z,32.40
2018-07-04T07:43:49.994Z,33.00
2018-07-04T07:46:30.252Z,33.40
2018-07-04T07:49:10.582Z,33.60
2018-07-04T07:51:50.839Z,33.40
2018-07-04T07:54:31.330Z,33.80
2018-07-04T07:57:11.525Z,34.30
2018-07-04T07:59:51.898Z,34.40
2018-07-04T08:02:32.394Z,34.40
2018-07-04T08:05:12.870Z,33.80
2018-07-04T08:07:53.441Z,34.60
2018-07-04T08:10:33.898Z,35.10
2018-07-04T08:13:14.477Z,35.20
2018-07-04T08:15:54.801Z,35.30
2018-07-04T08:18:35.146Z,35.00
2018-07-04T08:21:15.473Z,35.00
2018-07-04T08:23:55.927Z,35.30
2018-07-04T08:26:36.481Z,35.60
2018-07-04T08:29:16.930Z,34.50
2018-07-04T08:31:57.479Z,34.80
2018-07-04T08:34:39.770Z,34.60
2018-07-04T08:37:20.250Z,33.40
2018-07-04T08:40:00.536Z,33.10
2018-07-04T08:42:40.900Z,32.90
2018-07-04T08:45:21.335Z,33.20
2018-07-04T08:48:01.894Z,33.10
2018-07-04T08:50:42.323Z,32.60
2018-07-04T08:53:22.969Z,32.00
2018-07-04T08:56:03.576Z,31.30
2018-07-04T08:58:43.864Z,31.90
2018-07-04T09:01:24.216Z,32.40
2018-07-04T09:04:04.684Z,32.60
2018-07-04T09:06:44.986Z,32.40
2018-07-04T09:09:25.229Z,31.60
2018-07-04T09:12:05.716Z,31.50
2018-07-04T09:17:20.470Z,31.20
2018-07-04T09:20:00.851Z,30.90
2018-07-04T09:22:41.394Z,30.80
2018-07-04T09:25:21.736Z,30.70
2018-07-04T09:28:02.084Z,30.40
2018-07-04T09:30:42.450Z,30.10
2018-07-04T09:33:23.192Z,29.90
2018-07-04T09:36:03.784Z,29.80
2018-07-04T09:38:44.130Z,29.60
2018-07-04T09:41:24.598Z,29.40
2018-07-04T09:44:04.981Z,29.30
2018-07-04T09:46:45.274Z,29.10
2018-07-04T09:49:25.671Z,28.90
2018-07-04T09:52:06.062Z,28.70
2018-07-04T09:54:46.549Z,28.50
2018-07-04T09:57:26.908Z,28.40
2018-07-04T10:00:07.214Z,28.20
2018-07-04T10:02:47.493Z,28.20
2018-07-04T10:05:28.386Z,28.20
2018-07-04T10:08:09.613Z,28.00
2018-07-04T10:10:50.009Z,28.00
2018-07-04T10:13:30.773Z,27.70
2018-07-04T10:16:11.133Z,27.40
2018-07-04T10:18:51.410Z,27.10
2018-07-04T10:21:31.820Z,26.30
2018-07-04T10:24:12.253Z,25.80
2018-07-04T10:26:52.621Z,25.30
2018-07-04T10:29:33.060Z,24.60
2018-07-04T10:32:13.792Z,24.00
2018-07-04T10:34:54.262Z,23.30
2018-07-04T10:37:34.706Z,22.90
2018-07-04T10:40:15.301Z,22.80
2018-07-04T10:42:55.735Z,22.80
2018-07-04T10:45:36.241Z,22.70
2018-07-04T10:48:16.816Z,22.70
2018-07-04T10:50:57.376Z,22.60
2018-07-04T10:53:37.861Z,22.70
2018-07-04T10:56:18.278Z,22.70
2018-07-04T10:58:58.812Z,22.80
2018-07-04T11:01:39.450Z,22.80
2018-07-04T11:04:19.997Z,22.80
2018-07-04T11:07:00.625Z,22.80
2018-07-04T11:09:41.288Z,22.80
2018-07-04T11:12:21.844Z,22.40
2018-07-04T11:15:02.268Z,22.50
2018-07-04T11:17:42.773Z,22.60
2018-07-04T11:20:23.285Z,22.70
2018-07-04T11:23:03.537Z,22.70
2018-07-04T11:25:43.938Z,22.70
2018-07-04T11:28:24.590Z,22.70
2018-07-04T11:31:05.062Z,22.60
2018-07-04T11:33:45.543Z,22.70
2018-07-04T11:36:26.067Z,22.80
2018-07-04T11:39:06.564Z,22.90
2018-07-04T11:41:46.882Z,22.90
2018-07-04T11:44:27.183Z,23.00
2018-07-04T11:46:55.237Z,23.00
2018-07-04T11:49:23.267Z,23.00
2018-07-04T11:51:51.293Z,23.10
2018-07-04T11:54:19.569Z,23.00
2018-07-04T11:56:47.642Z,22.90
2018-07-04T11:59:15.756Z,22.90
2018-07-04T12:01:43.806Z,22.90
2018-07-04T12:04:24.065Z,23.00
2018-07-04T12:07:07.623Z,23.10
2018-07-04T12:09:36.806Z,23.40
2018-07-04T12:12:04.849Z,23.70
2018-07-04T12:17:01.247Z,24.10
2018-07-04T12:19:29.288Z,24.40
2018-07-04T12:21:57.331Z,24.50
2018-07-04T12:24:25.447Z,24.70
2018-07-04T12:29:21.637Z,25.00
2018-07-04T12:31:49.677Z,25.00
2018-07-04T12:34:17.744Z,25.30
2018-07-04T12:36:45.787Z,25.20
2018-07-04T12:39:13.852Z,25.30
2018-07-04T12:41:41.929Z,25.40
2018-07-04T12:44:09.957Z,25.30
2018-07-04T12:46:37.996Z,25.50
2018-07-04T12:49:06.026Z,25.50
2018-07-04T12:51:35.098Z,25.70
2018-07-04T12:54:08.658Z,25.80
2018-07-04T12:59:23.584Z,26.00
2018-07-04T13:02:04.402Z,26.00
2018-07-04T13:04:45.442Z,26.20
2018-07-04T13:07:26.218Z,26.30
2018-07-04T13:10:06.586Z,26.60
2018-07-04T13:12:46.880Z,26.80
2018-07-04T13:15:27.426Z,27.00
2018-07-04T13:18:08.567Z,27.10
2018-07-04T13:20:49.352Z,27.20
2018-07-04T13:23:29.640Z,27.00
2018-07-04T13:26:10.074Z,27.10
2018-07-04T13:28:50.737Z,27.00
2018-07-04T13:31:31.288Z,27.00
2018-07-04T13:34:11.691Z,27.00
2018-07-04T13:36:52.198Z,26.90
2018-07-04T13:39:32.732Z,27.00
2018-07-04T13:42:13.118Z,27.10
2018-07-04T13:44:54.706Z,27.30
2018-07-04T13:47:35.095Z,27.30
2018-07-04T13:50:15.475Z,27.40
2018-07-04T13:52:56.231Z,27.40
2018-07-04T13:55:36.946Z,27.40
2018-07-04T13:58:17.379Z,27.40
2018-07-04T14:00:57.748Z,27.40
2018-07-04T14:03:38.511Z,27.50
2018-07-04T14:08:53.291Z,27.40
2018-07-04T14:11:33.846Z,27.50
2018-07-04T14:14:14.214Z,27.50
2018-07-04T14:16:54.671Z,27.50
2018-07-04T14:19:35.201Z,27.50
2018-07-04T14:22:15.681Z,27.60
2018-07-04T14:24:56.210Z,27.60
2018-07-04T14:27:36.808Z,27.50
2018-07-04T14:30:17.169Z,27.40
2018-07-04T14:32:57.637Z,27.30
2018-07-04T14:35:38.419Z,27.20
2018-07-04T14:38:19.170Z,27.10
2018-07-04T14:40:59.652Z,27.10
2018-07-04T14:43:40.484Z,27.00
2018-07-04T14:46:20.873Z,26.70
2018-07-04T14:51:35.942Z,26.10
2018-07-04T14:54:16.860Z,26.10
2018-07-04T14:56:57.360Z,26.00
2018-07-04T14:59:38.184Z,26.00
2018-07-04T15:02:18.804Z,26.00
2018-07-04T15:04:59.466Z,26.00
2018-07-04T15:07:40.200Z,25.90
2018-07-04T15:10:20.664Z,25.70
2018-07-04T15:13:01.265Z,25.60
2018-07-04T15:15:41.754Z,25.50
2018-07-04T15:18:22.291Z,25.50
2018-07-04T15:21:02.810Z,25.30
2018-07-04T15:23:43.399Z,25.00
2018-07-04T15:26:24.065Z,25.00
2018-07-04T15:29:04.736Z,24.90
2018-07-04T15:31:45.361Z,24.90
2018-07-04T15:34:26.035Z,24.90
2018-07-04T15:37:06.698Z,24.90
2018-07-04T15:39:47.046Z,24.90
2018-07-04T15:45:02.091Z,25.10
2018-07-04T15:47:42.409Z,25.10
2018-07-04T15:50:22.848Z,25.20
2018-07-04T15:53:03.716Z,25.20
2018-07-04T15:55:44.306Z,25.20
2018-07-04T15:58:24.948Z,25.20
2018-07-04T16:03:39.976Z,25.30
2018-07-04T16:06:20.587Z,25.50
2018-07-04T16:09:01.154Z,25.60
2018-07-04T16:11:41.851Z,25.70
2018-07-04T16:14:22.405Z,25.70
2018-07-04T16:17:03.008Z,25.70
2018-07-04T16:19:43.377Z,25.60
2018-07-04T16:22:23.827Z,25.50
2018-07-04T16:25:04.399Z,25.40
2018-07-04T16:27:44.749Z,25.40
2018-07-04T16:30:25.096Z,25.30
2018-07-04T16:33:05.361Z,25.30
2018-07-04T16:35:45.960Z,25.40
2018-07-04T16:38:26.511Z,25.30
2018-07-04T16:41:06.998Z,25.40
2018-07-04T16:43:47.527Z,25.40
2018-07-04T16:46:27.893Z,25.50
2018-07-04T16:49:08.245Z,25.50
2018-07-04T16:51:48.853Z,25.50
2018-07-04T16:57:03.636Z,25.50
2018-07-04T16:59:44.162Z,25.50
2018-07-04T17:02:24.638Z,25.50
2018-07-04T17:05:04.972Z,25.40
2018-07-04T17:07:45.505Z,25.40
2018-07-04T17:10:26.035Z,25.40
2018-07-04T17:13:06.582Z,25.50
2018-07-04T17:15:46.863Z,25.40
2018-07-04T17:18:27.324Z,25.40
2018-07-04T17:21:07.710Z,25.30
2018-07-04T17:23:48.979Z,25.30
2018-07-04T17:26:29.475Z,25.30
2018-07-04T17:29:10.101Z,25.30
2018-07-04T17:31:50.543Z,25.30
2018-07-04T17:34:31.228Z,25.20
2018-07-04T17:37:11.823Z,25.20
2018-07-04T17:39:52.252Z,25.10
2018-07-04T17:42:32.797Z,25.20
2018-07-04T17:45:13.387Z,25.20
2018-07-04T17:47:53.921Z,25.20
2018-07-04T17:50:34.567Z,25.10
2018-07-04T17:53:15.022Z,25.10
2018-07-04T17:55:55.390Z,25.10
2018-07-04T17:58:35.895Z,25.10
2018-07-04T18:01:16.386Z,25.20
2018-07-04T18:03:56.891Z,25.20
2018-07-04T18:06:37.332Z,25.20
2018-07-04T18:09:17.730Z,25.20
2018-07-04T18:11:58.324Z,25.20
2018-07-04T18:14:38.828Z,25.20
2018-07-04T18:17:19.394Z,25.20
2018-07-04T18:19:59.769Z,25.20
2018-07-04T18:22:40.221Z,25.10
2018-07-04T18:25:20.600Z,25.00
2018-07-04T18:28:00.892Z,25.00
2018-07-04T18:30:41.314Z,25.00
2018-07-04T18:33:21.893Z,25.00
2018-07-04T18:36:02.425Z,24.90
2018-07-04T18:38:42.961Z,24.90
2018-07-04T18:41:23.295Z,24.90
2018-07-04T18:44:03.681Z,24.90
2018-07-04T18:46:43.980Z,24.80
2018-07-04T18:49:24.471Z,24.80
2018-07-04T18:52:05.028Z,24.80
2018-07-04T18:54:45.535Z,24.70
2018-07-04T18:57:25.972Z,24.70
2018-07-04T19:00:06.324Z,24.70
2018-07-04T19:02:47.577Z,24.60
2018-07-04T19:05:28.148Z,24.60
2018-07-04T19:08:08.747Z,24.60
2018-07-04T19:10:49.124Z,24.60
2018-07-04T19:13:29.550Z,24.70
2018-07-04T19:16:10.098Z,24.60
2018-07-04T19:18:50.619Z,24.50
2018-07-04T19:21:30.863Z,24.40
2018-07-04T19:24:11.211Z,24.30
2018-07-04T19:26:51.462Z,24.30
2018-07-04T19:29:31.985Z,24.30
2018-07-04T19:32:12.285Z,24.30
2018-07-04T19:34:52.809Z,24.20
2018-07-04T19:37:33.241Z,24.10
2018-07-04T19:40:13.822Z,24.10
2018-07-04T19:42:54.274Z,24.00
2018-07-04T19:45:34.731Z,24.00
2018-07-04T19:48:15.148Z,24.10
2018-07-04T19:50:55.534Z,24.00
2018-07-04T19:53:36.249Z,24.10
2018-07-04T19:56:16.738Z,24.10
2018-07-04T19:58:57.171Z,24.10
2018-07-04T20:01:37.618Z,24.10
2018-07-04T20:04:18.104Z,24.10
2018-07-04T20:06:58.816Z,24.10
2018-07-04T20:09:39.252Z,23.90
2018-07-04T20:12:19.674Z,23.90
2018-07-04T20:15:00.110Z,23.80
2018-07-04T20:17:40.595Z,23.70
2018-07-04T20:20:21.080Z,23.70
2018-07-04T20:23:01.541Z,23.60
2018-07-04T20:25:41.866Z,23.50
2018-07-04T20:28:22.318Z,23.40
2018-07-04T20:31:02.788Z,23.30
2018-07-04T20:33:43.251Z,23.40
2018-07-04T20:36:23.768Z,23.30
2018-07-04T20:39:05.184Z,23.30
2018-07-04T20:41:46.504Z,23.40
2018-07-04T20:44:26.901Z,23.40
2018-07-04T20:47:07.435Z,23.40
2018-07-04T20:49:47.718Z,23.40
2018-07-04T20:52:28.342Z,23.20
2018-07-04T20:55:08.836Z,23.10
2018-07-04T20:57:49.384Z,23.10
2018-07-04T21:00:29.758Z,23.10
2018-07-04T21:03:10.102Z,22.90
2018-07-04T21:05:50.425Z,22.80
2018-07-04T21:08:30.950Z,22.80
2018-07-04T21:11:12.842Z,23.00
2018-07-04T21:13:53.610Z,22.90
2018-07-04T21:16:34.179Z,23.00
2018-07-04T21:19:14.658Z,23.00
2018-07-04T21:21:55.132Z,23.10
2018-07-04T21:24:35.482Z,23.10
2018-07-04T21:27:15.840Z,23.10
2018-07-04T21:29:56.424Z,23.20
2018-07-04T21:32:37.905Z,23.10
2018-07-04T21:35:19.222Z,23.10
2018-07-04T21:38:00.535Z,23.00
2018-07-04T21:40:41.088Z,22.80
2018-07-04T21:43:21.660Z,22.80
2018-07-04T21:46:02.194Z,22.70
2018-07-04T21:48:42.578Z,22.80
2018-07-04T21:51:23.045Z,22.90
2018-07-04T21:54:03.672Z,22.90
2018-07-04T21:56:44.293Z,22.90
2018-07-04T21:59:24.941Z,22.80
2018-07-04T22:02:05.438Z,22.70
2018-07-04T22:04:46.047Z,22.80
2018-07-04T22:07:26.255Z,22.60
2018-07-04T22:10:06.819Z,22.80
2018-07-04T22:12:48.577Z,22.70
2018-07-04T22:15:29.179Z,22.60
2018-07-04T22:20:44.070Z,22.60
2018-07-04T22:23:24.627Z,22.70
2018-07-04T22:26:05.328Z,22.70
2018-07-04T22:28:45.872Z,22.60
2018-07-04T22:31:26.458Z,22.60
2018-07-04T22:34:06.911Z,22.40
2018-07-04T22:36:47.497Z,22.40
2018-07-04T22:39:27.898Z,22.50
2018-07-04T22:42:08.498Z,22.60
2018-07-04T22:44:48.975Z,22.60
2018-07-04T22:47:29.701Z,22.50
2018-07-04T22:50:10.260Z,22.60
2018-07-04T22:52:50.763Z,22.60
2018-07-04T22:55:31.203Z,22.60
2018-07-04T22:58:11.776Z,22.40
2018-07-04T23:00:52.217Z,22.40
2018-07-04T23:03:32.753Z,22.20
2018-07-04T23:06:13.315Z,22.20
2018-07-04T23:08:54.013Z,22.20
2018-07-04T23:11:34.651Z,22.10
2018-07-04T23:14:15.155Z,22.20
2018-07-04T23:16:55.913Z,22.20
2018-07-04T23:19:36.580Z,22.00
2018-07-04T23:22:17.154Z,22.00
2018-07-04T23:24:57.765Z,22.10
2018-07-04T23:27:38.217Z,22.20
2018-07-04T23:30:18.768Z,22.10
2018-07-04T23:32:59.199Z,22.10
2018-07-04T23:35:39.665Z,22.00
2018-07-04T23:40:54.546Z,22.10
2018-07-04T23:43:34.777Z,22.10
2018-07-04T23:46:15.390Z,22.10
2018-07-04T23:48:56.553Z,22.10
2018-07-04T23:51:36.842Z,22.00
2018-07-04T23:54:17.328Z,21.90
2018-07-04T23:56:57.627Z,21.90
2018-07-04T23:59:38.036Z,21.80
